Time;durP1;ratioP1;P1;durP2;ratioP2;P2;SDS_P1;SDS_P2;PMS_P1;PMS_P2;Temp;Humidity;BMP_temperature;BMP_pressure;BME280_temperature;BME280_humidity;BME280_pressure;Samples;Min_cycle;Max_cycle;Signal;HPM_P1;HPM_P2
2022/04/20 00:02:16;;;;;;;9.40;5.75;;;;;;;20.68;41.74;101793.16;5052335;28;20380;-40
2022/04/20 00:04:43;;;;;;;9.50;5.93;;;;;;;20.68;41.54;101799.38;5050567;28;20064;-40
2022/04/20 00:07:10;;;;;;;9.98;6.18;;;;;;;20.66;41.41;101796.00;5053609;28;20049;-40
2022/04/20 00:09:37;;;;;;;9.45;5.82;;;;;;;20.66;41.44;101801.41;5051784;28;20044;-40
2022/04/20 00:12:04;;;;;;;9.10;5.57;;;;;;;20.63;41.29;101793.59;5049808;28;20111;-40
2022/04/20 00:14:30;;;;;;;9.35;6.05;;;;;;;20.63;41.90;101799.00;5052343;28;20411;-40
2022/04/20 00:16:57;;;;;;;8.25;5.60;;;;;;;20.61;42.03;101795.56;5048237;28;20076;-38
2022/04/20 00:19:23;;;;;;;9.40;5.78;;;;;;;20.61;42.12;101789.34;5050160;28;20047;-39
2022/04/20 00:21:50;;;;;;;9.40;5.82;;;;;;;20.61;41.64;101792.88;5050274;28;20045;-39
2022/04/20 00:24:16;;;;;;;8.20;5.28;;;;;;;20.59;41.50;101792.19;5052949;28;20132;-39
2022/04/20 00:26:43;;;;;;;8.05;5.07;;;;;;;20.59;41.80;101794.91;5050434;28;20057;-39
2022/04/20 00:29:09;;;;;;;8.95;5.63;;;;;;;20.57;42.09;101796.03;5052262;28;20047;-40
2022/04/20 00:31:36;;;;;;;9.32;5.55;;;;;;;20.57;41.78;101799.56;5050226;28;20136;-40
2022/04/20 00:34:02;;;;;;;10.02;5.95;;;;;;;20.55;41.56;101796.19;5050034;28;20057;-40
2022/04/20 00:36:29;;;;;;;9.30;5.57;;;;;;;20.54;41.53;101797.16;5049477;28;20187;-40
2022/04/20 00:38:56;;;;;;;10.18;6.20;;;;;;;20.53;41.50;101798.16;5047593;28;20041;-40
2022/04/20 00:41:22;;;;;;;7.97;5.15;;;;;;;20.54;42.07;101804.41;5052846;28;20079;-40
2022/04/20 00:43:49;;;;;;;8.88;5.57;;;;;;;20.52;41.85;101801.00;5049438;28;20139;-40
2022/04/20 00:46:19;;;;;;;8.73;5.03;;;;;;;20.50;41.82;101803.84;5051236;28;20055;-39
2022/04/20 00:48:47;;;;;;;8.63;5.30;;;;;;;20.48;42.21;101803.13;5048502;28;20075;-39
2022/04/20 00:51:13;;;;;;;7.40;4.80;;;;;;;20.48;42.38;101807.66;5051196;28;20428;-39
2022/04/20 00:53:40;;;;;;;8.50;5.60;;;;;;;20.47;41.93;101812.19;5047951;28;20051;-39
2022/04/20 00:56:06;;;;;;;8.32;5.63;;;;;;;20.46;42.17;101810.47;5051909;28;20388;-39
2022/04/20 00:58:35;;;;;;;6.95;4.70;;;;;;;20.45;41.87;101808.78;5049866;28;20049;-39
2022/04/20 01:01:01;;;;;;;7.95;5.03;;;;;;;20.44;41.52;101807.09;5049188;28;20041;-39
2022/04/20 01:03:28;;;;;;;8.25;5.22;;;;;;;20.42;42.34;101803.69;5050548;28;20045;-39
2022/04/20 01:05:54;;;;;;;8.45;4.97;;;;;;;20.43;41.76;101805.41;5050006;28;20043;-39
2022/04/20 01:08:21;;;;;;;9.63;5.13;;;;;;;20.40;42.69;101803.84;5050051;28;20045;-39
2022/04/20 01:10:48;;;;;;;7.45;4.85;;;;;;;20.39;42.41;101806.69;5048719;28;20048;-39
2022/04/20 01:13:14;;;;;;;8.57;5.03;;;;;;;20.38;42.66;101802.28;5050963;28;20060;-39
2022/04/20 01:15:41;;;;;;;7.30;4.82;;;;;;;20.37;41.89;101804.13;5048375;28;20040;-40
2022/04/20 01:18:17;;;;;;;7.78;5.03;;;;;;;20.33;42.57;101800.03;5049194;28;20036;-40
2022/04/20 01:20:43;;;;;;;8.80;4.97;;;;;;;20.36;41.92;101806.97;5047865;28;20172;-40
2022/04/20 01:23:10;;;;;;;7.93;4.88;;;;;;;20.34;42.74;101806.25;5053441;28;20045;-40
2022/04/20 01:25:38;;;;;;;6.35;4.28;;;;;;;20.32;42.64;101803.72;5049194;28;20053;-39
2022/04/20 01:28:05;;;;;;;6.80;4.55;;;;;;;20.32;42.46;101809.09;5050607;28;20075;-40
2022/04/20 01:30:32;;;;;;;6.93;4.55;;;;;;;20.31;42.54;101803.88;5047997;28;20072;-40
2022/04/20 01:33:00;;;;;;;6.35;4.60;;;;;;;20.29;42.70;101806.69;5051551;28;20154;-40
2022/04/20 01:35:27;;;;;;;7.63;4.15;;;;;;;20.27;42.83;101805.16;5047468;28;20147;-39
2022/04/20 01:37:53;;;;;;;7.47;3.97;;;;;;;20.27;42.21;101811.41;5049367;28;20135;-39
2022/04/20 01:40:20;;;;;;;6.78;4.47;;;;;;;20.26;42.80;101804.31;5050005;28;20120;-39
2022/04/20 01:42:46;;;;;;;7.47;4.30;;;;;;;20.24;42.33;101813.53;5047545;28;20614;-39
2022/04/20 01:45:13;;;;;;;6.70;3.95;;;;;;;20.24;42.57;101814.38;5049382;28;20471;-39
2022/04/20 01:47:39;;;;;;;10.98;4.57;;;;;;;20.21;42.46;101807.41;5047148;28;20048;-40
2022/04/20 01:50:07;;;;;;;7.45;4.75;;;;;;;20.20;42.49;101815.66;5050476;28;20051;-39
2022/04/20 01:52:33;;;;;;;8.52;4.72;;;;;;;20.18;42.92;101809.53;5048740;28;20060;-39
2022/04/20 01:55:00;;;;;;;8.10;4.53;;;;;;;20.17;42.98;101806.00;5048717;28;20045;-39
2022/04/20 01:57:26;;;;;;;6.55;3.97;;;;;;;20.16;42.64;101811.53;5049968;28;20040;-39
2022/04/20 01:59:53;;;;;;;10.75;4.45;;;;;;;20.15;42.91;101812.56;5048417;28;20037;-39
2022/04/20 02:02:34;;;;;;;7.53;3.90;;;;;;;20.13;42.56;101814.53;5049352;28;20037;-39
2022/04/20 02:05:04;;;;;;;6.65;4.40;;;;;;;20.12;42.44;101813.69;5048959;28;20052;-39
2022/04/20 02:07:31;;;;;;;4.38;3.25;;;;;;;20.10;43.06;101815.69;5046815;28;20049;-39
2022/04/20 02:09:58;;;;;;;6.88;4.53;;;;;;;20.11;42.63;101811.13;5049157;28;20052;-39
2022/04/20 02:12:25;;;;;;;4.93;3.72;;;;;;;20.09;42.81;101813.09;5051885;28;20136;-39
2022/04/20 02:14:52;;;;;;;6.40;4.20;;;;;;;20.06;43.20;101806.19;5052934;28;20041;-39
2022/04/20 02:17:18;;;;;;;5.93;3.80;;;;;;;20.05;43.41;101804.47;5052562;28;20053;-39
2022/04/20 02:19:45;;;;;;;7.25;4.13;;;;;;;20.04;42.97;101802.78;5052164;28;20053;-39
2022/04/20 02:22:12;;;;;;;6.10;3.65;;;;;;;20.05;43.32;101803.63;5052353;28;20059;-40
2022/04/20 02:24:38;;;;;;;6.30;4.10;;;;;;;20.03;43.39;101803.78;5052110;28;20057;-39
2022/04/20 02:27:05;;;;;;;5.80;3.72;;;;;;;20.00;43.16;101806.75;5053858;28;20103;-39
2022/04/20 02:29:32;;;;;;;6.72;4.25;;;;;;;20.01;42.60;101810.28;5052969;28;20045;-40
2022/04/20 02:31:58;;;;;;;4.97;3.50;;;;;;;19.99;43.49;101805.06;5053702;28;20049;-39
2022/04/20 02:34:25;;;;;;;7.07;3.70;;;;;;;19.99;42.78;101804.22;5053523;28;20045;-39
2022/04/20 02:36:52;;;;;;;5.35;3.70;;;;;;;19.97;43.36;101810.56;5054141;28;20041;-39
2022/04/20 02:39:19;;;;;;;7.40;3.78;;;;;;;19.96;42.86;101813.41;5051832;28;20583;-40
2022/04/20 02:41:46;;;;;;;6.95;4.07;;;;;;;19.94;43.25;101808.19;5050772;28;20055;-39
2022/04/20 02:44:14;;;;;;;7.05;4.00;;;;;;;19.92;42.92;101796.69;5052299;28;20139;-39
2022/04/20 02:46:42;;;;;;;6.85;3.97;;;;;;;19.90;43.08;101806.78;5050319;28;20045;-39
2022/04/20 02:49:09;;;;;;;5.25;3.40;;;;;;;19.89;43.52;101806.88;5051515;28;20055;-39
2022/04/20 02:51:35;;;;;;;5.43;3.33;;;;;;;19.89;43.11;101809.59;5052795;28;20049;-39
2022/04/20 02:54:02;;;;;;;4.88;3.33;;;;;;;19.88;43.65;101814.13;5050047;28;21536;-40
2022/04/20 02:56:28;;;;;;;5.90;3.50;;;;;;;19.88;42.98;101815.97;5054735;28;20053;-39
2022/04/20 02:58:55;;;;;;;6.22;3.80;;;;;;;19.86;43.48;101815.25;5052914;28;20087;-39
2022/04/20 03:01:21;;;;;;;4.50;2.85;;;;;;;19.85;43.04;101816.25;5050281;28;20051;-39
2022/04/20 03:03:48;;;;;;;6.90;3.60;;;;;;;19.84;43.76;101817.25;5051321;28;20072;-40
2022/04/20 03:06:15;;;;;;;5.03;3.40;;;;;;;19.83;43.53;101810.16;5051296;28;20045;-39
2022/04/20 03:08:41;;;;;;;6.32;3.55;;;;;;;19.83;42.87;101813.72;5052742;28;20136;-39
2022/04/20 03:11:08;;;;;;;5.53;3.55;;;;;;;19.81;43.67;101818.38;5052609;28;20045;-39
2022/04/20 03:13:35;;;;;;;4.50;2.92;;;;;;;19.80;43.09;101819.38;5049787;28;20041;-39
2022/04/20 03:16:01;;;;;;;5.18;3.28;;;;;;;19.80;43.22;101813.97;5050543;28;20040;-39
2022/04/20 03:18:32;;;;;;;7.10;3.35;;;;;;;19.79;43.73;101814.13;5049142;28;20041;-39
2022/04/20 03:21:00;;;;;;;5.20;2.95;;;;;;;19.78;43.39;101818.66;5050745;28;20076;-39
2022/04/20 03:23:28;;;;;;;4.38;3.10;;;;;;;19.77;43.92;101818.78;5050794;28;20080;-39
2022/04/20 03:25:55;;;;;;;6.95;3.05;;;;;;;19.75;43.15;101813.56;5047202;28;20045;-39
2022/04/20 03:28:22;;;;;;;5.50;3.22;;;;;;;19.75;43.95;101812.72;5052744;28;20079;-40
2022/04/20 03:30:48;;;;;;;5.22;3.28;;;;;;;19.73;43.29;101821.75;5050817;28;20168;-40
2022/04/20 03:33:15;;;;;;;4.30;2.83;;;;;;;19.71;43.85;101821.06;5051203;28;20454;-40
2022/04/20 03:35:43;;;;;;;4.70;3.20;;;;;;;19.70;43.52;101821.22;5052274;28;20049;-40
2022/04/20 03:38:10;;;;;;;4.38;2.90;;;;;;;19.69;43.55;101820.34;5051911;28;20045;-40
2022/04/20 03:40:37;;;;;;;8.82;3.63;;;;;;;19.69;43.92;101824.88;5049046;28;20053;-40
2022/04/20 03:43:03;;;;;;;4.10;2.83;;;;;;;19.67;43.45;101829.56;5050128;28;20136;-40
2022/04/20 03:45:30;;;;;;;3.90;2.90;;;;;;;19.67;43.91;101838.47;5049004;28;20094;-40
2022/04/20 03:47:57;;;;;;;4.53;2.92;;;;;;;19.66;43.82;101834.09;5049378;28;20321;-40
2022/04/20 03:50:23;;;;;;;5.00;2.95;;;;;;;19.64;43.48;101836.06;5046324;28;20806;-40
2022/04/20 03:52:50;;;;;;;4.43;2.90;;;;;;;19.63;44.16;101834.38;5049226;28;20560;-40
2022/04/20 03:55:16;;;;;;;4.40;3.05;;;;;;;19.64;44.12;101835.22;5050370;28;20045;-40
2022/04/20 03:57:43;;;;;;;4.43;2.85;;;;;;;19.64;43.93;101837.91;5050363;28;20162;-40
2022/04/20 04:00:10;;;;;;;9.80;3.20;;;;;;;19.62;44.18;101835.38;5050129;28;20529;-40
2022/04/20 04:10:06;;;;;;;4.70;2.85;;;;;;;19.61;44.26;101836.31;5053448;28;20040;-39
2022/04/20 04:12:34;;;;;;;7.30;3.08;;;;;;;19.60;44.17;101839.13;5049127;28;20076;-39
2022/04/20 04:15:00;;;;;;;5.28;3.03;;;;;;;19.61;44.08;101840.81;5047215;28;20200;-39
2022/04/20 04:17:27;;;;;;;6.53;2.92;;;;;;;19.58;43.68;101839.28;5049783;28;20052;-39
2022/04/20 04:19:53;;;;;;;5.32;2.90;;;;;;;19.56;43.58;101843.09;5050879;28;20132;-39
2022/04/20 04:22:21;;;;;;;5.75;2.45;;;;;;;19.54;43.98;101839.69;5049434;28;20491;-39
2022/04/20 04:24:48;;;;;;;4.45;2.70;;;;;;;19.53;43.18;101849.59;5052304;28;20148;-40
2022/04/20 04:27:15;;;;;;;5.97;2.97;;;;;;;19.52;44.03;101849.75;5053001;28;20055;-40
2022/04/20 04:29:41;;;;;;;4.28;3.03;;;;;;;19.51;43.92;101851.59;5050508;28;20127;-40
2022/04/20 04:32:08;;;;;;;4.15;2.72;;;;;;;19.49;43.20;101842.78;5052537;28;20060;-40
2022/04/20 04:34:35;;;;;;;6.13;3.33;;;;;;;19.50;43.80;101849.88;5051903;28;20041;-41
2022/04/20 04:37:01;;;;;;;5.25;2.97;;;;;;;19.47;43.95;101845.63;5050709;28;20120;-40
2022/04/20 04:39:28;;;;;;;6.22;3.25;;;;;;;19.46;43.46;101854.69;5049641;28;20045;-41
2022/04/20 04:42:02;;;;;;;6.93;3.03;;;;;;;19.45;43.80;101855.66;5050277;28;20124;-41
2022/04/20 04:44:29;;;;;;;;;;;;;;;19.44;43.30;101856.66;5049957;28;20302;-41
2022/04/20 04:49:40;;;;;;;4.80;3.00;;;;;;;19.46;43.54;101861.91;5050907;28;20036;-41
2022/04/20 04:52:11;;;;;;;4.47;3.00;;;;;;;19.44;43.85;101858.50;5051691;28;20123;-41
2022/04/20 04:54:39;;;;;;;8.70;3.10;;;;;;;19.42;43.58;101861.34;5051232;28;20082;-41
2022/04/20 04:57:07;;;;;;;4.50;2.55;;;;;;;19.42;43.61;101864.03;5051522;28;20129;-41
2022/04/20 04:59:41;;;;;;;4.22;2.78;;;;;;;19.41;43.54;101859.63;5048722;28;20091;-41
2022/04/20 05:02:08;;;;;;;5.45;3.05;;;;;;;19.42;43.89;101863.19;5049035;28;20047;-41
2022/04/20 05:04:36;;;;;;;4.78;3.13;;;;;;;19.42;43.35;101869.41;5052214;28;20044;-41
2022/04/20 05:07:03;;;;;;;9.07;2.85;;;;;;;19.43;43.68;101870.25;5049999;28;20136;-42
2022/04/20 05:09:30;;;;;;;6.25;3.00;;;;;;;19.46;43.83;101875.34;5050304;28;20045;-40
2022/04/20 05:11:57;;;;;;;5.53;3.15;;;;;;;19.46;43.71;101869.97;5049951;28;20052;-40
2022/04/20 05:14:23;;;;;;;6.85;2.95;;;;;;;19.47;43.89;101875.22;5051101;28;20053;-40
2022/04/20 05:16:50;;;;;;;5.30;3.13;;;;;;;19.47;43.40;101867.13;5048561;28;20340;-40
2022/04/20 05:19:17;;;;;;;5.38;3.10;;;;;;;19.51;43.19;101869.56;5050274;28;20033;-40
2022/04/20 05:21:44;;;;;;;4.35;2.60;;;;;;;19.51;43.13;101874.94;5051233;28;20657;-40
2022/04/20 05:24:10;;;;;;;4.60;3.08;;;;;;;19.50;43.25;101868.72;5051969;28;20049;-40
2022/04/20 05:26:37;;;;;;;4.85;2.90;;;;;;;19.49;43.08;101875.91;5050122;28;20447;-40
2022/04/20 05:29:03;;;;;;;4.25;2.90;;;;;;;19.49;43.19;101883.97;5050215;28;20055;-39
2022/04/20 05:31:30;;;;;;;4.80;3.35;;;;;;;19.48;43.58;101887.66;5048243;28;20048;-40
2022/04/20 05:33:56;;;;;;;5.20;3.40;;;;;;;19.51;43.36;101893.75;5050631;28;20045;-40
2022/04/20 05:36:23;;;;;;;4.57;2.95;;;;;;;19.50;42.91;101892.91;5051065;28;20037;-41
2022/04/20 05:41:40;;;;;;;3.80;2.80;;;;;;;19.49;43.57;101896.56;5049722;28;20327;-40
2022/04/20 05:44:11;;;;;;;4.45;2.60;;;;;;;19.49;43.44;101899.25;5049025;28;20164;-40
2022/04/20 05:46:39;;;;;;;4.15;2.92;;;;;;;19.47;43.17;101896.72;5045304;28;20048;-40
2022/04/20 05:49:06;;;;;;;5.32;2.88;;;;;;;19.47;42.88;101896.72;5049794;28;20047;-40
2022/04/20 05:51:32;;;;;;;5.07;2.72;;;;;;;19.46;42.62;101897.72;5049703;28;20136;-40
2022/04/20 05:53:59;;;;;;;4.45;2.80;;;;;;;19.46;43.45;101891.50;5049392;28;20128;-39
2022/04/20 05:56:26;;;;;;;5.40;3.40;;;;;;;19.45;42.68;101892.44;5048453;28;20324;-40
2022/04/20 05:58:52;;;;;;;4.53;3.00;;;;;;;19.43;42.94;101892.59;5048133;28;20041;-39
2022/04/20 06:01:20;;;;;;;6.32;3.05;;;;;;;19.43;43.21;101887.22;5046615;28;20136;-39
2022/04/20 06:03:47;;;;;;;5.35;3.05;;;;;;;19.43;42.80;101886.38;5049400;28;20486;-39
2022/04/20 06:06:13;;;;;;;6.88;3.03;;;;;;;19.42;43.28;101882.00;5050514;28;20068;-39
2022/04/20 06:08:41;;;;;;;4.97;3.03;;;;;;;19.41;43.01;101889.19;5049910;28;20328;-39
2022/04/20 06:11:08;;;;;;;3.35;2.67;;;;;;;19.41;43.54;101878.44;5051808;28;20041;-39
2022/04/20 06:13:35;;;;;;;5.00;2.95;;;;;;;19.41;43.44;101880.28;5050508;28;20053;-39
2022/04/20 06:16:04;;;;;;;4.97;3.05;;;;;;;19.41;43.45;101886.50;5047717;28;20399;-39
2022/04/20 06:18:31;;;;;;;4.43;2.45;;;;;;;19.42;42.84;101887.38;5050388;28;20053;-39
2022/04/20 06:20:58;;;;;;;4.95;2.75;;;;;;;19.41;42.71;101891.88;5048114;28;20045;-39
2022/04/20 06:23:24;;;;;;;3.25;2.28;;;;;;;19.41;43.06;101891.03;5049904;28;20051;-39
2022/04/20 06:25:55;;;;;;;4.47;2.88;;;;;;;19.41;43.18;101891.88;5047654;28;20144;-39
2022/04/20 06:28:25;;;;;;;4.20;2.80;;;;;;;19.41;43.15;101888.34;5048504;28;20076;-39
2022/04/20 06:30:53;;;;;;;4.32;2.72;;;;;;;19.41;42.79;101888.34;5046052;28;20068;-39
2022/04/20 06:33:21;;;;;;;3.15;2.40;;;;;;;19.42;43.16;101896.28;5049573;28;20099;-39
2022/04/20 06:35:48;;;;;;;4.22;2.58;;;;;;;19.42;42.54;101893.59;5049983;28;20080;-39
2022/04/20 06:38:16;;;;;;;3.88;2.70;;;;;;;19.41;43.01;101889.19;5048498;28;20072;-40
2022/04/20 06:40:43;;;;;;;4.68;2.75;;;;;;;19.41;43.21;101889.19;5048083;28;20041;-39
2022/04/20 06:43:10;;;;;;;4.15;2.38;;;;;;;19.43;43.06;101894.44;5048682;28;20041;-39
2022/04/20 06:45:37;;;;;;;4.60;2.70;;;;;;;19.45;42.71;101895.13;5048168;28;20330;-39
2022/04/20 06:48:03;;;;;;;3.50;2.58;;;;;;;19.46;42.85;101900.41;5049149;28;20045;-39
2022/04/20 06:50:30;;;;;;;5.88;2.60;;;;;;;19.48;43.12;101892.19;5050342;28;20043;-39
2022/04/20 06:58:32;;;;;;;3.50;2.08;;;;;;;19.55;42.65;101890.66;5050544;28;20047;-39
2022/04/20 07:00:59;;;;;;;3.78;2.47;;;;;;;19.58;42.30;101893.06;5050674;28;20039;-39
2022/04/20 07:03:26;;;;;;;4.93;2.42;;;;;;;19.61;42.30;101897.31;5051111;28;20156;-39
2022/04/20 07:05:53;;;;;;;3.45;2.00;;;;;;;19.63;42.11;101893.53;5051097;28;20102;-39
2022/04/20 07:08:19;;;;;;;4.47;2.70;;;;;;;19.65;41.95;101890.69;5053440;28;20450;-39
2022/04/20 07:10:47;;;;;;;4.57;2.15;;;;;;;19.67;42.11;101896.81;5053465;28;20113;-39
2022/04/20 07:13:16;;;;;;;5.30;2.30;;;;;;;19.69;42.54;101890.28;5053537;28;20045;-39
2022/04/20 07:15:42;;;;;;;3.80;2.45;;;;;;;19.71;42.16;101901.75;5051818;28;20308;-39
2022/04/20 07:18:09;;;;;;;3.97;2.47;;;;;;;19.71;42.38;101896.38;5052096;28;20053;-39
2022/04/20 07:20:35;;;;;;;2.75;2.03;;;;;;;19.72;42.55;101899.91;5053839;28;20051;-39
2022/04/20 07:23:02;;;;;;;3.95;2.35;;;;;;;19.71;42.46;101895.53;5052636;28;20136;-39
2022/04/20 07:25:30;;;;;;;3.28;2.25;;;;;;;19.73;42.27;101893.53;5049372;28;20132;-39
2022/04/20 07:27:57;;;;;;;3.60;2.20;;;;;;;19.75;42.02;101901.50;5034094;28;20045;-39
2022/04/20 07:30:24;;;;;;;6.20;2.33;;;;;;;19.75;41.86;101896.97;5050839;28;20040;-39
2022/04/20 07:32:50;;;;;;;3.50;1.85;;;;;;;19.78;42.40;101901.19;5050406;28;20139;-39
2022/04/20 07:35:17;;;;;;;3.40;1.90;;;;;;;19.79;42.52;101900.22;5051383;28;20072;-39
2022/04/20 07:37:43;;;;;;;3.30;2.10;;;;;;;19.79;42.21;101897.53;5051448;28;20124;-40
2022/04/20 07:40:12;;;;;;;2.65;2.10;;;;;;;19.79;41.90;101900.22;5049885;28;20045;-39
2022/04/20 07:42:39;;;;;;;3.97;2.47;;;;;;;19.80;42.23;101910.81;5047768;28;20132;-39
2022/04/20 07:45:06;;;;;;;2.92;2.10;;;;;;;19.81;41.86;101912.53;5051139;28;20061;-40
2022/04/20 07:47:32;;;;;;;3.50;2.22;;;;;;;19.82;42.17;101907.97;5051340;28;20049;-40
2022/04/20 07:52:55;;;;;;;2.88;2.05;;;;;;;19.82;42.15;101913.38;5050466;28;20045;-39
2022/04/20 07:55:33;;;;;;;3.13;2.00;;;;;;;19.83;41.64;101912.41;5052541;28;20072;-39
2022/04/20 07:58:03;;;;;;;2.30;1.70;;;;;;;19.84;42.31;101909.56;5053468;28;20072;-40
2022/04/20 08:00:30;;;;;;;3.08;1.98;;;;;;;19.85;41.78;101916.63;5049755;28;20037;-39
2022/04/20 08:03:15;;;;;;;1.98;1.52;;;;;;;19.85;42.24;101913.94;5051755;28;20041;-39
2022/04/20 08:05:47;;;;;;;2.78;1.95;;;;;;;19.86;41.82;101918.34;5050912;28;20514;-39
2022/04/20 08:08:14;;;;;;;3.03;1.92;;;;;;;19.87;41.75;101916.50;5051343;28;20040;-40
2022/04/20 08:10:40;;;;;;;3.67;2.13;;;;;;;19.87;41.69;101909.28;5048863;28;20063;-40
2022/04/20 08:15:52;;;;;;;3.85;2.03;;;;;;;19.89;42.07;101909.13;5050088;28;20127;-40
2022/04/20 08:18:19;;;;;;;2.80;1.90;;;;;;;19.88;41.97;101916.38;5047456;28;20124;-40
2022/04/20 08:20:45;;;;;;;2.80;1.85;;;;;;;19.90;41.61;101913.53;5051505;28;20045;-40
2022/04/20 08:23:12;;;;;;;2.53;1.80;;;;;;;19.89;41.79;101918.06;5052226;28;20096;-41
2022/04/20 08:25:39;;;;;;;2.65;1.80;;;;;;;19.90;41.46;101921.59;5049399;28;20131;-40
2022/04/20 08:28:10;;;;;;;3.05;1.92;;;;;;;19.90;41.50;101917.09;5049429;28;20420;-40
2022/04/20 08:30:38;;;;;;;2.53;1.88;;;;;;;19.92;41.48;101920.47;5049334;28;20037;-40
2022/04/20 08:33:08;;;;;;;3.30;1.90;;;;;;;19.94;42.26;101923.03;5049495;28;20436;-40
2022/04/20 08:35:35;;;;;;;2.90;1.80;;;;;;;19.95;42.01;101919.34;5045665;28;20053;-40
2022/04/20 08:38:02;;;;;;;3.45;1.80;;;;;;;19.96;41.45;101927.28;5049486;28;20040;-40
2022/04/20 08:40:29;;;;;;;2.42;1.80;;;;;;;19.98;42.21;101927.16;5049661;28;20045;-40
2022/04/20 08:43:01;;;;;;;2.42;1.58;;;;;;;19.99;41.68;101930.69;5050341;28;20084;-40
2022/04/20 08:45:28;;;;;;;2.92;1.85;;;;;;;20.01;41.51;101917.94;5050240;28;20084;-40
2022/04/20 08:47:57;;;;;;;4.25;1.92;;;;;;;20.02;41.58;101928.56;5052605;28;20049;-41
2022/04/20 08:50:25;;;;;;;4.15;1.88;;;;;;;20.05;42.17;101925.56;5049728;28;20322;-40
2022/04/20 08:52:53;;;;;;;3.40;2.25;;;;;;;20.06;41.97;101924.63;5048881;28;20436;-40
2022/04/20 08:55:20;;;;;;;1.90;1.45;;;;;;;20.07;41.90;101923.63;5050012;28;20142;-40
2022/04/20 08:57:48;;;;;;;3.33;1.55;;;;;;;20.09;42.18;101923.47;5052074;28;20130;-40
2022/04/20 09:00:21;;;;;;;4.97;2.00;;;;;;;20.11;42.34;101925.03;5050771;28;20055;-40
2022/04/20 09:02:52;;;;;;;4.47;1.60;;;;;;;20.13;42.47;101920.34;5049422;28;20056;-40
2022/04/20 09:05:22;;;;;;;3.35;2.42;;;;;;;20.15;41.67;101918.38;5048776;28;20048;-40
2022/04/20 09:07:50;;;;;;;3.47;1.80;;;;;;;20.16;42.09;101912.00;5050241;28;20329;-40
2022/04/20 09:10:16;;;;;;;2.03;1.52;;;;;;;20.18;42.11;101910.03;5050863;28;20045;-40
2022/04/20 09:12:45;;;;;;;3.15;1.83;;;;;;;20.20;41.99;101909.88;5050106;28;20059;-40
2022/04/20 09:15:14;;;;;;;3.30;1.70;;;;;;;20.22;41.82;101918.63;5047586;28;20056;-40
2022/04/20 09:17:45;;;;;;;1.67;1.55;;;;;;;20.25;42.11;101912.13;5050513;28;20139;-40
2022/04/20 09:20:19;;;;;;;3.13;1.73;;;;;;;20.27;42.08;101905.63;5050110;28;20385;-40
2022/04/20 09:22:58;;;;;;;;;;;;;;;20.29;42.32;101903.63;5049560;28;20081;-39
2022/04/20 09:25:36;;;;;;;2.15;1.60;;;;;;;20.33;42.11;101906.88;5049578;28;19927;-40
2022/04/20 09:28:07;;;;;;;2.42;1.60;;;;;;;20.35;42.11;101913.00;5050010;28;20124;-40
2022/04/20 09:30:39;;;;;;;3.03;1.70;;;;;;;20.36;42.05;101902.06;5049495;28;20124;-40
2022/04/20 09:33:07;;;;;;;2.35;1.67;;;;;;;20.41;42.03;101898.94;5047094;28;20053;-40
2022/04/20 09:35:43;;;;;;;2.88;1.60;;;;;;;20.45;42.74;101900.34;5048461;28;20045;-40
2022/04/20 09:38:10;;;;;;;2.80;1.63;;;;;;;20.50;42.29;101891.88;5050201;28;20059;-39
2022/04/20 09:40:38;;;;;;;2.53;1.40;;;;;;;20.55;42.38;101893.16;5048042;28;20479;-40
2022/04/20 09:43:12;;;;;;;2.40;1.48;;;;;;;20.60;41.91;101882.78;5047759;28;20124;-40
2022/04/20 09:45:41;;;;;;;3.22;1.58;;;;;;;20.66;42.31;101884.03;5045808;28;20067;-40
2022/04/20 09:51:21;;;;;;;2.78;1.90;;;;;;;20.77;42.32;101883.03;5012126;28;20052;-40
2022/04/20 09:53:49;;;;;;;1.80;1.30;;;;;;;20.81;41.78;101881.72;5046655;28;20450;-42
2022/04/20 09:56:16;;;;;;;1.92;1.50;;;;;;;20.85;42.21;101883.97;5048521;28;20332;-41
2022/04/20 09:58:46;;;;;;;2.95;1.50;;;;;;;20.89;42.11;101888.06;5048363;28;20124;-43
2022/04/20 10:01:45;;;;;;;2.35;1.27;;;;;;;20.94;41.57;101884.94;5049807;28;20348;-41
2022/04/20 10:04:12;;;;;;;2.30;1.60;;;;;;;20.99;41.57;101884.53;5046556;28;20057;-42
2022/04/20 10:06:41;;;;;;;2.13;1.67;;;;;;;21.01;41.62;101882.50;5028899;28;20059;-42
2022/04/20 10:09:08;;;;;;;1.92;1.20;;;;;;;21.04;41.56;101885.75;5049151;28;20045;-42
2022/04/20 10:11:36;;;;;;;1.92;1.50;;;;;;;21.08;41.78;101876.38;5046597;28;20040;-42
2022/04/20 10:16:52;;;;;;;2.00;1.45;;;;;;;21.14;41.33;101870.38;5046783;28;20432;-42
2022/04/20 10:19:29;;;;;;;2.42;1.30;;;;;;;21.16;41.33;101876.50;5048960;28;20045;-41
2022/04/20 10:21:57;;;;;;;2.08;1.13;;;;;;;21.20;41.46;101869.78;5045952;28;20047;-40
2022/04/20 10:24:28;;;;;;;2.55;1.17;;;;;;;21.24;41.15;101864.13;5048853;28;20051;-41
2022/04/20 10:27:15;;;;;;;5.10;1.65;;;;;;;21.28;41.20;101865.50;5046668;28;20131;-41
2022/04/20 10:29:48;;;;;;;14.73;3.30;;;;;;;21.32;41.24;101856.13;5047623;28;20055;-41
2022/04/20 10:32:22;;;;;;;20.17;4.68;;;;;;;21.34;41.69;101848.75;5050296;28;20139;-42
2022/04/20 10:34:52;;;;;;;15.95;4.13;;;;;;;21.37;41.35;101845.75;5053881;28;20049;-41
2022/04/20 10:37:25;;;;;;;11.52;3.40;;;;;;;21.38;41.39;101845.59;5050149;28;20059;-41
2022/04/20 10:39:55;;;;;;;10.95;3.40;;;;;;;21.40;41.15;101849.00;5051605;28;20128;-41
2022/04/20 10:42:23;;;;;;;17.00;3.50;;;;;;;21.42;41.32;101840.75;5053225;28;20040;-41
2022/04/20 10:45:16;;;;;;;13.38;3.30;;;;;;;21.44;40.97;101841.44;5052272;28;20357;-40
2022/04/20 10:47:44;;;;;;;10.20;3.57;;;;;;;21.48;41.00;101850.09;5051712;28;20073;-40
2022/04/20 10:50:17;;;;;;;16.02;3.78;;;;;;;21.48;40.52;101839.31;5056539;28;20072;-40
2022/04/20 10:52:56;;;;;;;16.98;3.83;;;;;;;21.48;40.15;101837.44;5053889;28;20139;-40
2022/04/20 10:55:29;;;;;;;18.23;3.45;;;;;;;21.50;39.90;101838.13;5048429;28;20124;-40
2022/04/20 10:57:56;;;;;;;12.53;3.83;;;;;;;21.53;39.73;101834.28;5050981;28;20335;-40
2022/04/20 11:00:23;;;;;;;15.85;3.03;;;;;;;21.53;39.46;101818.09;5053952;28;20041;-40
2022/04/20 11:03:12;;;;;;;11.52;3.00;;;;;;;21.53;39.07;101818.09;5051450;28;20355;-40
2022/04/20 11:05:53;;;;;;;9.85;2.85;;;;;;;21.56;38.97;101825.91;5053265;28;20045;-40
2022/04/20 11:08:22;;;;;;;9.38;3.03;;;;;;;21.56;38.90;101824.06;5053221;28;20447;-41
2022/04/20 11:19:49;;;;;;;8.32;2.83;;;;;;;21.61;38.51;101810.94;5053189;28;20057;-41
2022/04/20 11:22:15;;;;;;;9.57;2.40;;;;;;;21.62;38.40;101809.09;5052763;28;20079;-40
2022/04/20 11:24:42;;;;;;;6.05;2.10;;;;;;;21.62;38.39;101804.53;5053096;28;20212;-40
2022/04/20 11:27:10;;;;;;;8.55;2.42;;;;;;;21.64;38.23;101810.63;5051239;28;20061;-40
2022/04/20 11:29:38;;;;;;;5.43;2.13;;;;;;;21.63;37.88;101805.41;5053322;28;20416;-41
2022/04/20 11:32:09;;;;;;;5.28;1.90;;;;;;;21.65;38.06;101787.19;5052335;28;20072;-41
2022/04/20 11:34:41;;;;;;;6.20;2.47;;;;;;;21.65;38.54;101782.66;5053246;28;20103;-42
2022/04/20 11:37:09;;;;;;;3.95;1.73;;;;;;;21.66;38.10;101791.59;5050034;28;20049;-41
2022/04/20 11:39:36;;;;;;;4.40;2.17;;;;;;;21.67;38.07;101786.06;5049527;28;20418;-41
2022/04/20 11:42:06;;;;;;;3.50;1.80;;;;;;;21.68;38.11;101781.50;5053698;28;20052;-40
2022/04/20 11:44:36;;;;;;;6.00;1.90;;;;;;;21.69;37.94;101781.34;5050420;28;20108;-41
2022/04/20 11:47:05;;;;;;;4.80;1.73;;;;;;;21.71;37.79;101778.50;5051548;28;20076;-41
2022/04/20 11:49:36;;;;;;;5.63;1.77;;;;;;;21.72;37.71;101766.69;5050861;28;20383;-40
2022/04/20 11:52:06;;;;;;;4.40;1.38;;;;;;;21.73;37.54;101768.38;5049801;28;20056;-39
2022/04/20 11:54:34;;;;;;;4.18;1.67;;;;;;;21.74;37.72;101751.19;5053008;28;20491;-41
2022/04/20 11:57:02;;;;;;;4.45;2.03;;;;;;;21.76;37.47;101756.44;5053234;28;20041;-40
2022/04/20 11:59:29;;;;;;;4.03;1.50;;;;;;;21.77;37.33;101758.97;5052977;28;20487;-41
2022/04/20 12:01:56;;;;;;;4.95;1.60;;;;;;;21.79;37.14;101758.81;5050633;28;20697;-41
2022/04/20 12:04:27;;;;;;;3.05;1.50;;;;;;;21.80;37.45;101747.03;5052975;28;20051;-40
2022/04/20 12:06:59;;;;;;;5.68;1.52;;;;;;;21.81;37.19;101746.00;5051656;28;20152;-40
2022/04/20 12:09:28;;;;;;;5.00;1.45;;;;;;;21.83;36.99;101757.50;5053246;28;20053;-40